Ridgefield, CT

12:12 PM EDT on July 24, 2017 (GMT -0400)
Plumtrees | | Change Station
Active Advisory: Special Statement

Elev 420 ft 41.39 °N, 73.39 °W | Updated 36 seconds ago

Overcast
Overcast
57.5 °F
Feels Like 57.5 °F
N
0.0
Wind Variable Wind from NNE

Today
High -- | Low -- °F
--% Chance of Precip.
Yesterday
High -- | Low -- °F
Precip. -- in
Pressure 29.85 in
Visibility 2.0 miles
Clouds Few 800 ft
Mostly Cloudy 1200 ft
Overcast 2800 ft
Dew Point 56.0 °F
Humidity 96%
Rainfall 0.62 in
Snow Depth Not available.
5:41 AM 8:18 PM
New Moon, 2% visible
SPECI KDXR 241602Z 05012G18KT 2SM RA BR FEW008 BKN012 OVC028 14/13 A2985 RMK AO2 P0002 T01440133
Pressure 29.85 in
Visibility 2.0 miles
Clouds Few 800 ft
Mostly Cloudy 1200 ft
Overcast 2800 ft
Dew Point 56.0 °F
Humidity 96%
Rainfall 0.62 in
Snow Depth Not available.
5:41 AM 8:18 PM
New Moon, 2% visible
SPECI KDXR 241602Z 05012G18KT 2SM RA BR FEW008 BKN012 OVC028 14/13 A2985 RMK AO2 P0002 T01440133

Get Your Daily Forecast Email!

Thanks for signing up!

Be on the lookout for a verification email in your inbox.

You'll start receiving severe weather alerts in your inbox..

×

10-Day Weather Forecast

Almanac

Astronomy

Jul. 24, 2017 Rise Set
Actual Time
Civil Twilight
Nautical Twilight
Astronomical Twilight
Moon
Length of Visible Light
Length of Day
Tomorrow will be .
, % of the Moon is Illuminated

Today's Extremes

State Highs State Lows

Community

WunderPhotos

Category 6

Welcome to Category 6. This is the collective home for Weather Underground's featured writeups by Dr. Jeff Masters (right), Bob Henson (left), Chris Burt, and other regular contributors.

Nearby

Air Quality

  Air Quality AQ Index Pollutant
Not available.

Snow Depth

Station Depth Elevation

Earthquake Activity

City Distance Mag. Time & Date
Minimum magnitude displayed is 2.5.

Coastal Water Temperatures

Place Temperature

Stations

Nearby Weather Stations

Station Location Temp. Windchill Dew Point Humidity Wind Precip. Elev Updated Type
                   

Watches & Warnings

Special Statement
Issued: 10:44 AM EDT Jul. 24, 2017 – National Weather Service

The back edge of rain will work across the area the next few
hours, with brief localized heavy rainfall, poor visibilities, and
ponding of water on area roadways. Motorists are advised to be
alert for rapidly changing conditions and be prepared to slow
down.